Decoded Metar for KGWO (GREENWOOD in MS, USA) (IATA:GWO) | Meteo·Mobile Aviation Weather
aviador You're here:

KGWO Decoded Metar

GREENWOOD in MS, USA
Report Time2019-04-23 14:53:00
UTC Time2019-04-23 16:01:11
Flight Rules Old
Wind220° at 05 kt
W.Decomp.*RWY 23: 4.9 kt HW 0.8 kt LCW
RWY 18: 3.8 kt HW 3.3 kt RCW
RWY 27: 3.3 kt HW 3.8 kt LCW
Visibility9999 m
Phenomena:N/A
Clouds:N/A
Expected CloudBase > 2,000 ft AGL from Temp-Dew spread
CeilingNone
Temp19°C (ISA +4)
Dew Point14°C (73% RH)
AAT18.5°C
QNH1021 hPa
Density Alt591 ft
Elevation144 ft
Report Wrong Elevation
Raw Report
KGWO 231453Z AUTO 22005KT 10SM CLR 19/14 A3014 RMK AO2 SLP206
T01890144 53007=

Extra information for KGWO:More info

Metar Taf Metar & Taf Last 4 Metars F.Rules Stats Wind Profile Meteogram Temp Stats Airport Information Weather charts Add Link Nearby VenuesMetar ALERT Operation Metar Decoded Social comments

AIRNAV info for KGWO